sensor_id;sensor_type;location;lat;lon;timestamp;P1;durP1;ratioP1;P2;durP2;ratioP2
39612;SDS011;25303;48.896;13.342;2023-03-14T00:01:34;1.83;;;0.63;;
39612;SDS011;25303;48.896;13.342;2023-03-14T00:04:17;1.60;;;0.70;;
39612;SDS011;25303;48.896;13.342;2023-03-14T00:06:59;2.85;;;0.70;;
39612;SDS011;25303;48.896;13.342;2023-03-14T00:09:44;2.38;;;0.60;;
39612;SDS011;25303;48.896;13.342;2023-03-14T00:12:27;1.05;;;0.70;;
39612;SDS011;25303;48.896;13.342;2023-03-14T00:15:10;2.50;;;0.70;;
39612;SDS011;25303;48.896;13.342;2023-03-14T00:17:53;1.42;;;0.50;;
39612;SDS011;25303;48.896;13.342;2023-03-14T00:20:36;2.75;;;0.80;;
39612;SDS011;25303;48.896;13.342;2023-03-14T00:23:19;2.90;;;0.73;;
39612;SDS011;25303;48.896;13.342;2023-03-14T00:26:03;4.63;;;0.80;;
39612;SDS011;25303;48.896;13.342;2023-03-14T00:28:50;1.95;;;0.73;;
39612;SDS011;25303;48.896;13.342;2023-03-14T00:31:34;1.13;;;0.60;;
39612;SDS011;25303;48.896;13.342;2023-03-14T00:34:17;1.30;;;0.50;;
39612;SDS011;25303;48.896;13.342;2023-03-14T00:37:00;1.92;;;0.63;;
39612;SDS011;25303;48.896;13.342;2023-03-14T00:39:43;2.10;;;0.70;;
39612;SDS011;25303;48.896;13.342;2023-03-14T00:42:27;3.35;;;0.65;;
39612;SDS011;25303;48.896;13.342;2023-03-14T00:45:12;1.83;;;0.70;;
39612;SDS011;25303;48.896;13.342;2023-03-14T00:47:54;2.78;;;0.70;;
39612;SDS011;25303;48.896;13.342;2023-03-14T00:50:38;2.77;;;0.50;;
39612;SDS011;25303;48.896;13.342;2023-03-14T00:53:21;0.80;;;0.40;;
39612;SDS011;25303;48.896;13.342;2023-03-14T00:56:05;2.17;;;0.70;;
39612;SDS011;25303;48.896;13.342;2023-03-14T00:58:54;1.55;;;0.60;;
39612;SDS011;25303;48.896;13.342;2023-03-14T01:01:38;1.10;;;0.70;;
39612;SDS011;25303;48.896;13.342;2023-03-14T01:04:21;3.50;;;0.70;;
39612;SDS011;25303;48.896;13.342;2023-03-14T01:07:04;1.55;;;0.60;;
39612;SDS011;25303;48.896;13.342;2023-03-14T01:09:49;2.67;;;0.52;;
39612;SDS011;25303;48.896;13.342;2023-03-14T01:12:33;1.05;;;0.70;;
39612;SDS011;25303;48.896;13.342;2023-03-14T01:15:18;2.13;;;0.68;;
39612;SDS011;25303;48.896;13.342;2023-03-14T01:18:01;2.92;;;0.60;;
39612;SDS011;25303;48.896;13.342;2023-03-14T01:20:44;1.10;;;0.57;;
39612;SDS011;25303;48.896;13.342;2023-03-14T01:23:27;1.73;;;0.55;;
39612;SDS011;25303;48.896;13.342;2023-03-14T01:26:10;0.70;;;0.40;;
39612;SDS011;25303;48.896;13.342;2023-03-14T01:28:54;8.75;;;2.53;;
39612;SDS011;25303;48.896;13.342;2023-03-14T01:31:39;13.80;;;4.73;;
39612;SDS011;25303;48.896;13.342;2023-03-14T01:34:22;10.52;;;3.72;;
39612;SDS011;25303;48.896;13.342;2023-03-14T01:37:05;4.25;;;1.80;;
39612;SDS011;25303;48.896;13.342;2023-03-14T01:39:50;1.60;;;1.00;;
39612;SDS011;25303;48.896;13.342;2023-03-14T01:42:33;3.88;;;1.50;;
39612;SDS011;25303;48.896;13.342;2023-03-14T01:48:38;2.28;;;1.00;;
39612;SDS011;25303;48.896;13.342;2023-03-14T01:51:27;4.20;;;1.30;;
39612;SDS011;25303;48.896;13.342;2023-03-14T01:54:16;4.47;;;2.10;;
39612;SDS011;25303;48.896;13.342;2023-03-14T01:57:04;5.95;;;1.50;;
39612;SDS011;25303;48.896;13.342;2023-03-14T01:59:51;9.65;;;4.80;;
39612;SDS011;25303;48.896;13.342;2023-03-14T02:02:37;11.27;;;5.40;;
39612;SDS011;25303;48.896;13.342;2023-03-14T02:05:26;6.43;;;3.00;;
39612;SDS011;25303;48.896;13.342;2023-03-14T02:08:21;3.35;;;1.65;;
39612;SDS011;25303;48.896;13.342;2023-03-14T02:11:09;2.53;;;1.00;;
39612;SDS011;25303;48.896;13.342;2023-03-14T02:14:14;3.67;;;1.50;;
39612;SDS011;25303;48.896;13.342;2023-03-14T02:17:18;2.55;;;1.27;;
39612;SDS011;25303;48.896;13.342;2023-03-14T02:20:21;3.15;;;1.65;;
39612;SDS011;25303;48.896;13.342;2023-03-14T02:23:12;2.55;;;1.10;;
39612;SDS011;25303;48.896;13.342;2023-03-14T02:26:00;1.13;;;0.60;;
39612;SDS011;25303;48.896;13.342;2023-03-14T02:28:48;0.90;;;0.60;;
39612;SDS011;25303;48.896;13.342;2023-03-14T02:31:34;0.73;;;0.43;;
39612;SDS011;25303;48.896;13.342;2023-03-14T02:34:17;1.92;;;0.50;;
39612;SDS011;25303;48.896;13.342;2023-03-14T02:37:00;1.00;;;0.30;;
39612;SDS011;25303;48.896;13.342;2023-03-14T02:39:44;0.73;;;0.40;;
39612;SDS011;25303;48.896;13.342;2023-03-14T02:42:31;0.88;;;0.32;;
39612;SDS011;25303;48.896;13.342;2023-03-14T02:48:18;0.55;;;0.32;;
39612;SDS011;25303;48.896;13.342;2023-03-14T02:51:04;1.00;;;0.50;;
39612;SDS011;25303;48.896;13.342;2023-03-14T02:53:47;0.95;;;0.40;;
39612;SDS011;25303;48.896;13.342;2023-03-14T02:56:30;1.55;;;0.88;;
39612;SDS011;25303;48.896;13.342;2023-03-14T02:59:15;1.08;;;0.50;;
39612;SDS011;25303;48.896;13.342;2023-03-14T03:02:10;0.95;;;0.43;;
39612;SDS011;25303;48.896;13.342;2023-03-14T03:04:53;1.08;;;0.45;;
39612;SDS011;25303;48.896;13.342;2023-03-14T03:07:35;1.05;;;0.60;;
39612;SDS011;25303;48.896;13.342;2023-03-14T03:10:18;1.02;;;0.50;;
39612;SDS011;25303;48.896;13.342;2023-03-14T03:13:02;0.88;;;0.50;;
39612;SDS011;25303;48.896;13.342;2023-03-14T03:15:45;0.80;;;0.55;;
39612;SDS011;25303;48.896;13.342;2023-03-14T03:18:29;0.57;;;0.35;;
39612;SDS011;25303;48.896;13.342;2023-03-14T03:21:13;1.05;;;0.50;;
39612;SDS011;25303;48.896;13.342;2023-03-14T03:23:57;0.60;;;0.40;;
39612;SDS011;25303;48.896;13.342;2023-03-14T03:26:40;0.95;;;0.40;;
39612;SDS011;25303;48.896;13.342;2023-03-14T03:29:24;1.52;;;0.50;;
39612;SDS011;25303;48.896;13.342;2023-03-14T03:32:08;0.80;;;0.45;;
39612;SDS011;25303;48.896;13.342;2023-03-14T03:34:52;1.15;;;0.65;;
39612;SDS011;25303;48.896;13.342;2023-03-14T03:37:35;2.75;;;0.50;;
39612;SDS011;25303;48.896;13.342;2023-03-14T03:43:02;1.40;;;0.80;;
39612;SDS011;25303;48.896;13.342;2023-03-14T03:45:50;1.35;;;0.70;;
39612;SDS011;25303;48.896;13.342;2023-03-14T03:48:34;1.50;;;0.60;;
39612;SDS011;25303;48.896;13.342;2023-03-14T03:51:20;0.70;;;0.60;;
39612;SDS011;25303;48.896;13.342;2023-03-14T03:54:03;1.58;;;0.60;;
39612;SDS011;25303;48.896;13.342;2023-03-14T03:56:47;0.80;;;0.53;;
39612;SDS011;25303;48.896;13.342;2023-03-14T03:59:30;0.70;;;0.50;;
39612;SDS011;25303;48.896;13.342;2023-03-14T04:02:13;1.23;;;0.50;;
39612;SDS011;25303;48.896;13.342;2023-03-14T04:04:56;0.73;;;0.50;;
39612;SDS011;25303;48.896;13.342;2023-03-14T04:07:40;0.60;;;0.30;;
39612;SDS011;25303;48.896;13.342;2023-03-14T04:10:23;1.25;;;0.40;;
39612;SDS011;25303;48.896;13.342;2023-03-14T04:13:19;0.98;;;0.20;;
39612;SDS011;25303;48.896;13.342;2023-03-14T04:16:09;0.38;;;0.20;;
39612;SDS011;25303;48.896;13.342;2023-03-14T04:18:57;0.17;;;0.17;;
39612;SDS011;25303;48.896;13.342;2023-03-14T04:21:41;0.20;;;0.20;;
39612;SDS011;25303;48.896;13.342;2023-03-14T04:24:28;0.50;;;0.38;;
39612;SDS011;25303;48.896;13.342;2023-03-14T04:27:11;0.73;;;0.38;;
39612;SDS011;25303;48.896;13.342;2023-03-14T04:29:57;0.25;;;0.20;;
39612;SDS011;25303;48.896;13.342;2023-03-14T04:33:18;0.60;;;0.30;;
39612;SDS011;25303;48.896;13.342;2023-03-14T04:36:06;0.73;;;0.50;;
39612;SDS011;25303;48.896;13.342;2023-03-14T04:38:50;0.40;;;0.30;;
39612;SDS011;25303;48.896;13.342;2023-03-14T04:41:35;1.95;;;0.35;;
39612;SDS011;25303;48.896;13.342;2023-03-14T04:44:19;0.45;;;0.35;;
39612;SDS011;25303;48.896;13.342;2023-03-14T04:47:06;0.30;;;0.30;;
39612;SDS011;25303;48.896;13.342;2023-03-14T04:49:50;0.40;;;0.30;;
39612;SDS011;25303;48.896;13.342;2023-03-14T04:52:33;0.68;;;0.40;;
39612;SDS011;25303;48.896;13.342;2023-03-14T04:55:16;0.70;;;0.40;;
39612;SDS011;25303;48.896;13.342;2023-03-14T04:58:01;0.40;;;0.32;;
39612;SDS011;25303;48.896;13.342;2023-03-14T05:00:44;0.68;;;0.38;;
39612;SDS011;25303;48.896;13.342;2023-03-14T05:03:47;0.80;;;0.20;;
39612;SDS011;25303;48.896;13.342;2023-03-14T05:06:50;0.20;;;0.20;;
39612;SDS011;25303;48.896;13.342;2023-03-14T05:09:52;0.60;;;0.35;;
39612;SDS011;25303;48.896;13.342;2023-03-14T05:12:56;0.30;;;0.30;;
39612;SDS011;25303;48.896;13.342;2023-03-14T05:16:04;0.40;;;0.30;;
39612;SDS011;25303;48.896;13.342;2023-03-14T05:19:06;0.52;;;0.25;;
39612;SDS011;25303;48.896;13.342;2023-03-14T05:22:07;0.90;;;0.50;;
39612;SDS011;25303;48.896;13.342;2023-03-14T05:25:07;0.77;;;0.40;;
39612;SDS011;25303;48.896;13.342;2023-03-14T05:28:02;1.10;;;0.38;;
39612;SDS011;25303;48.896;13.342;2023-03-14T05:31:07;0.47;;;0.40;;
39612;SDS011;25303;48.896;13.342;2023-03-14T05:34:02;0.20;;;0.20;;
39612;SDS011;25303;48.896;13.342;2023-03-14T05:36:54;0.55;;;0.40;;
39612;SDS011;25303;48.896;13.342;2023-03-14T05:40:04;0.68;;;0.50;;
39612;SDS011;25303;48.896;13.342;2023-03-14T05:42:56;0.63;;;0.50;;
39612;SDS011;25303;48.896;13.342;2023-03-14T05:45:57;0.47;;;0.40;;
39612;SDS011;25303;48.896;13.342;2023-03-14T05:49:08;0.50;;;0.38;;
39612;SDS011;25303;48.896;13.342;2023-03-14T05:51:59;1.15;;;0.55;;
39612;SDS011;25303;48.896;13.342;2023-03-14T05:55:00;0.30;;;0.30;;
39612;SDS011;25303;48.896;13.342;2023-03-14T05:57:49;0.55;;;0.35;;
39612;SDS011;25303;48.896;13.342;2023-03-14T06:00:50;0.40;;;0.40;;
39612;SDS011;25303;48.896;13.342;2023-03-14T06:03:47;0.45;;;0.30;;
39612;SDS011;25303;48.896;13.342;2023-03-14T06:06:31;0.43;;;0.28;;
39612;SDS011;25303;48.896;13.342;2023-03-14T06:09:15;0.40;;;0.30;;
39612;SDS011;25303;48.896;13.342;2023-03-14T06:11:58;0.30;;;0.30;;
39612;SDS011;25303;48.896;13.342;2023-03-14T06:14:44;3.28;;;2.08;;
39612;SDS011;25303;48.896;13.342;2023-03-14T06:17:27;2.80;;;2.00;;
39612;SDS011;25303;48.896;13.342;2023-03-14T06:20:18;3.63;;;1.60;;
39612;SDS011;25303;48.896;13.342;2023-03-14T06:23:02;8.90;;;1.30;;
39612;SDS011;25303;48.896;13.342;2023-03-14T06:25:45;24.75;;;1.88;;
39612;SDS011;25303;48.896;13.342;2023-03-14T06:28:28;4.80;;;1.27;;
39612;SDS011;25303;48.896;13.342;2023-03-14T06:31:14;2.03;;;1.50;;
39612;SDS011;25303;48.896;13.342;2023-03-14T06:34:06;6.70;;;1.95;;
39612;SDS011;25303;48.896;13.342;2023-03-14T06:36:49;19.95;;;2.50;;
39612;SDS011;25303;48.896;13.342;2023-03-14T06:39:33;1.75;;;1.50;;
39612;SDS011;25303;48.896;13.342;2023-03-14T06:42:26;2.00;;;1.40;;
39612;SDS011;25303;48.896;13.342;2023-03-14T06:45:09;3.38;;;2.28;;
39612;SDS011;25303;48.896;13.342;2023-03-14T06:47:52;3.00;;;2.30;;
39612;SDS011;25303;48.896;13.342;2023-03-14T06:50:40;3.20;;;2.33;;
39612;SDS011;25303;48.896;13.342;2023-03-14T06:53:24;5.38;;;2.97;;
39612;SDS011;25303;48.896;13.342;2023-03-14T06:56:08;3.20;;;2.20;;
39612;SDS011;25303;48.896;13.342;2023-03-14T06:58:52;8.50;;;2.97;;
39612;SDS011;25303;48.896;13.342;2023-03-14T07:01:37;5.13;;;2.67;;
39612;SDS011;25303;48.896;13.342;2023-03-14T07:04:23;2.20;;;1.58;;
39612;SDS011;25303;48.896;13.342;2023-03-14T07:07:07;7.85;;;2.88;;
39612;SDS011;25303;48.896;13.342;2023-03-14T07:09:50;3.47;;;2.30;;
39612;SDS011;25303;48.896;13.342;2023-03-14T07:12:35;6.13;;;3.57;;
39612;SDS011;25303;48.896;13.342;2023-03-14T07:15:18;2.90;;;1.70;;
39612;SDS011;25303;48.896;13.342;2023-03-14T07:18:06;2.40;;;1.45;;
39612;SDS011;25303;48.896;13.342;2023-03-14T07:20:48;4.82;;;2.50;;
39612;SDS011;25303;48.896;13.342;2023-03-14T07:23:33;3.35;;;2.10;;
39612;SDS011;25303;48.896;13.342;2023-03-14T07:26:16;3.60;;;2.03;;
39612;SDS011;25303;48.896;13.342;2023-03-14T07:29:04;2.97;;;1.83;;
39612;SDS011;25303;48.896;13.342;2023-03-14T07:31:47;1.50;;;1.10;;
39612;SDS011;25303;48.896;13.342;2023-03-14T07:34:33;2.38;;;1.50;;
39612;SDS011;25303;48.896;13.342;2023-03-14T07:37:16;1.92;;;1.45;;
39612;SDS011;25303;48.896;13.342;2023-03-14T07:39:59;2.40;;;1.88;;
39612;SDS011;25303;48.896;13.342;2023-03-14T07:42:44;1.80;;;1.50;;
39612;SDS011;25303;48.896;13.342;2023-03-14T07:45:41;2.53;;;1.70;;
39612;SDS011;25303;48.896;13.342;2023-03-14T07:48:24;2.13;;;1.48;;
39612;SDS011;25303;48.896;13.342;2023-03-14T07:51:08;2.65;;;1.63;;
39612;SDS011;25303;48.896;13.342;2023-03-14T07:53:51;2.55;;;1.67;;
39612;SDS011;25303;48.896;13.342;2023-03-14T07:56:34;2.95;;;1.20;;
39612;SDS011;25303;48.896;13.342;2023-03-14T07:59:17;3.90;;;2.28;;
39612;SDS011;25303;48.896;13.342;2023-03-14T08:02:01;2.70;;;1.80;;
39612;SDS011;25303;48.896;13.342;2023-03-14T08:04:46;4.18;;;2.85;;
39612;SDS011;25303;48.896;13.342;2023-03-14T08:07:30;3.17;;;1.98;;
39612;SDS011;25303;48.896;13.342;2023-03-14T08:10:13;2.45;;;1.70;;
39612;SDS011;25303;48.896;13.342;2023-03-14T08:13:03;1.67;;;0.98;;
39612;SDS011;25303;48.896;13.342;2023-03-14T08:15:47;2.60;;;1.23;;
39612;SDS011;25303;48.896;13.342;2023-03-14T08:18:31;2.58;;;1.30;;
39612;SDS011;25303;48.896;13.342;2023-03-14T08:21:14;2.17;;;1.27;;
39612;SDS011;25303;48.896;13.342;2023-03-14T08:23:57;1.63;;;1.00;;
39612;SDS011;25303;48.896;13.342;2023-03-14T08:26:40;1.73;;;1.25;;
39612;SDS011;25303;48.896;13.342;2023-03-14T08:29:23;1.02;;;0.93;;
39612;SDS011;25303;48.896;13.342;2023-03-14T08:32:06;1.33;;;1.00;;
39612;SDS011;25303;48.896;13.342;2023-03-14T08:34:50;2.60;;;1.25;;
39612;SDS011;25303;48.896;13.342;2023-03-14T08:37:33;1.10;;;0.93;;
39612;SDS011;25303;48.896;13.342;2023-03-14T08:40:16;1.83;;;1.00;;
39612;SDS011;25303;48.896;13.342;2023-03-14T08:42:59;1.65;;;1.10;;
39612;SDS011;25303;48.896;13.342;2023-03-14T08:45:42;2.28;;;1.60;;
39612;SDS011;25303;48.896;13.342;2023-03-14T08:48:25;1.60;;;0.75;;
39612;SDS011;25303;48.896;13.342;2023-03-14T08:51:10;1.05;;;0.70;;
39612;SDS011;25303;48.896;13.342;2023-03-14T08:53:55;1.30;;;0.70;;
39612;SDS011;25303;48.896;13.342;2023-03-14T08:56:38;0.73;;;0.30;;
39612;SDS011;25303;48.896;13.342;2023-03-14T08:59:21;0.90;;;0.40;;
39612;SDS011;25303;48.896;13.342;2023-03-14T09:02:04;0.98;;;0.30;;
39612;SDS011;25303;48.896;13.342;2023-03-14T09:04:49;1.08;;;0.40;;
39612;SDS011;25303;48.896;13.342;2023-03-14T09:07:34;0.60;;;0.30;;
39612;SDS011;25303;48.896;13.342;2023-03-14T09:10:16;0.50;;;0.30;;
39612;SDS011;25303;48.896;13.342;2023-03-14T09:12:59;1.38;;;0.40;;
39612;SDS011;25303;48.896;13.342;2023-03-14T09:15:42;0.80;;;0.30;;
39612;SDS011;25303;48.896;13.342;2023-03-14T09:18:25;0.65;;;0.30;;
39612;SDS011;25303;48.896;13.342;2023-03-14T09:21:08;1.98;;;0.30;;
39612;SDS011;25303;48.896;13.342;2023-03-14T09:23:52;0.40;;;0.30;;
39612;SDS011;25303;48.896;13.342;2023-03-14T09:26:35;2.03;;;0.35;;
39612;SDS011;25303;48.896;13.342;2023-03-14T09:29:17;0.88;;;0.40;;
39612;SDS011;25303;48.896;13.342;2023-03-14T09:32:01;1.23;;;0.40;;
39612;SDS011;25303;48.896;13.342;2023-03-14T09:34:44;1.27;;;0.30;;
39612;SDS011;25303;48.896;13.342;2023-03-14T09:37:27;1.65;;;0.30;;
39612;SDS011;25303;48.896;13.342;2023-03-14T09:40:12;0.85;;;0.30;;
39612;SDS011;25303;48.896;13.342;2023-03-14T09:42:57;0.60;;;0.30;;
39612;SDS011;25303;48.896;13.342;2023-03-14T09:45:41;1.33;;;0.40;;
39612;SDS011;25303;48.896;13.342;2023-03-14T09:48:29;0.73;;;0.45;;
39612;SDS011;25303;48.896;13.342;2023-03-14T09:51:14;2.00;;;0.43;;
39612;SDS011;25303;48.896;13.342;2023-03-14T09:54:00;1.58;;;0.40;;
39612;SDS011;25303;48.896;13.342;2023-03-14T09:56:45;0.65;;;0.30;;
39612;SDS011;25303;48.896;13.342;2023-03-14T09:59:28;2.05;;;1.25;;
39612;SDS011;25303;48.896;13.342;2023-03-14T10:02:13;2.08;;;0.68;;
39612;SDS011;25303;48.896;13.342;2023-03-14T10:04:59;1.42;;;0.70;;
39612;SDS011;25303;48.896;13.342;2023-03-14T10:07:47;1.15;;;0.47;;
39612;SDS011;25303;48.896;13.342;2023-03-14T10:10:30;0.98;;;0.50;;
39612;SDS011;25303;48.896;13.342;2023-03-14T10:13:16;2.60;;;1.20;;
39612;SDS011;25303;48.896;13.342;2023-03-14T10:16:01;3.10;;;1.48;;
39612;SDS011;25303;48.896;13.342;2023-03-14T10:18:47;2.63;;;1.30;;
39612;SDS011;25303;48.896;13.342;2023-03-14T10:21:30;3.50;;;1.58;;
39612;SDS011;25303;48.896;13.342;2023-03-14T10:24:19;2.20;;;1.42;;
39612;SDS011;25303;48.896;13.342;2023-03-14T10:27:03;1.67;;;0.80;;
39612;SDS011;25303;48.896;13.342;2023-03-14T10:29:53;0.80;;;0.40;;
39612;SDS011;25303;48.896;13.342;2023-03-14T10:32:40;0.70;;;0.50;;
39612;SDS011;25303;48.896;13.342;2023-03-14T10:35:28;1.05;;;0.50;;
39612;SDS011;25303;48.896;13.342;2023-03-14T10:38:16;2.63;;;0.80;;
39612;SDS011;25303;48.896;13.342;2023-03-14T10:41:00;0.93;;;0.50;;
39612;SDS011;25303;48.896;13.342;2023-03-14T10:43:43;1.52;;;0.50;;
39612;SDS011;25303;48.896;13.342;2023-03-14T10:46:29;1.98;;;0.60;;
39612;SDS011;25303;48.896;13.342;2023-03-14T10:49:34;0.75;;;0.65;;
39612;SDS011;25303;48.896;13.342;2023-03-14T10:52:19;1.48;;;0.88;;
39612;SDS011;25303;48.896;13.342;2023-03-14T10:55:16;1.60;;;1.05;;
39612;SDS011;25303;48.896;13.342;2023-03-14T10:57:59;4.15;;;1.50;;
39612;SDS011;25303;48.896;13.342;2023-03-14T11:00:41;2.58;;;1.40;;
39612;SDS011;25303;48.896;13.342;2023-03-14T11:03:27;1.85;;;1.00;;
39612;SDS011;25303;48.896;13.342;2023-03-14T11:06:14;2.05;;;1.05;;
39612;SDS011;25303;48.896;13.342;2023-03-14T11:09:05;1.55;;;0.80;;
39612;SDS011;25303;48.896;13.342;2023-03-14T11:11:58;1.77;;;0.77;;
39612;SDS011;25303;48.896;13.342;2023-03-14T11:14:51;2.40;;;1.23;;
39612;SDS011;25303;48.896;13.342;2023-03-14T11:17:41;6.53;;;2.30;;
39612;SDS011;25303;48.896;13.342;2023-03-14T11:20:37;5.22;;;2.00;;
39612;SDS011;25303;48.896;13.342;2023-03-14T11:23:27;4.63;;;1.80;;
39612;SDS011;25303;48.896;13.342;2023-03-14T11:26:21;2.88;;;1.40;;
39612;SDS011;25303;48.896;13.342;2023-03-14T11:29:15;3.38;;;1.52;;
39612;SDS011;25303;48.896;13.342;2023-03-14T11:32:03;3.17;;;1.70;;
39612;SDS011;25303;48.896;13.342;2023-03-14T11:34:55;7.95;;;3.17;;
39612;SDS011;25303;48.896;13.342;2023-03-14T11:37:44;4.05;;;2.10;;
39612;SDS011;25303;48.896;13.342;2023-03-14T11:40:29;4.88;;;1.85;;
39612;SDS011;25303;48.896;13.342;2023-03-14T11:43:17;5.35;;;2.53;;
39612;SDS011;25303;48.896;13.342;2023-03-14T11:46:08;4.15;;;2.15;;
39612;SDS011;25303;48.896;13.342;2023-03-14T11:48:58;5.63;;;2.60;;
39612;SDS011;25303;48.896;13.342;2023-03-14T11:51:46;2.85;;;1.52;;
39612;SDS011;25303;48.896;13.342;2023-03-14T11:54:35;2.35;;;1.42;;
39612;SDS011;25303;48.896;13.342;2023-03-14T11:57:26;1.70;;;1.20;;
39612;SDS011;25303;48.896;13.342;2023-03-14T12:00:13;2.83;;;1.20;;
39612;SDS011;25303;48.896;13.342;2023-03-14T12:02:59;5.03;;;3.00;;
39612;SDS011;25303;48.896;13.342;2023-03-14T12:05:47;5.15;;;2.08;;
39612;SDS011;25303;48.896;13.342;2023-03-14T12:08:39;2.85;;;1.40;;
39612;SDS011;25303;48.896;13.342;2023-03-14T12:11:32;2.15;;;1.00;;
39612;SDS011;25303;48.896;13.342;2023-03-14T12:14:21;2.17;;;0.90;;
39612;SDS011;25303;48.896;13.342;2023-03-14T12:17:07;2.15;;;1.33;;
39612;SDS011;25303;48.896;13.342;2023-03-14T12:20:03;2.97;;;1.77;;
39612;SDS011;25303;48.896;13.342;2023-03-14T12:22:49;4.25;;;2.42;;
39612;SDS011;25303;48.896;13.342;2023-03-14T12:25:34;3.28;;;2.03;;
39612;SDS011;25303;48.896;13.342;2023-03-14T12:28:19;7.43;;;3.72;;
39612;SDS011;25303;48.896;13.342;2023-03-14T12:34:26;2.80;;;1.80;;
39612;SDS011;25303;48.896;13.342;2023-03-14T12:37:14;2.05;;;1.17;;
39612;SDS011;25303;48.896;13.342;2023-03-14T12:40:13;1.58;;;1.00;;
39612;SDS011;25303;48.896;13.342;2023-03-14T12:43:00;1.40;;;0.90;;
39612;SDS011;25303;48.896;13.342;2023-03-14T12:45:46;1.25;;;0.80;;
39612;SDS011;25303;48.896;13.342;2023-03-14T12:48:50;1.20;;;0.63;;
39612;SDS011;25303;48.896;13.342;2023-03-14T12:51:38;1.15;;;0.73;;
39612;SDS011;25303;48.896;13.342;2023-03-14T12:54:29;1.38;;;0.63;;
39612;SDS011;25303;48.896;13.342;2023-03-14T12:57:24;1.52;;;0.70;;
39612;SDS011;25303;48.896;13.342;2023-03-14T13:00:17;1.10;;;0.75;;
39612;SDS011;25303;48.896;13.342;2023-03-14T13:03:12;2.08;;;1.08;;
39612;SDS011;25303;48.896;13.342;2023-03-14T13:06:00;2.03;;;0.90;;
39612;SDS011;25303;48.896;13.342;2023-03-14T13:08:45;1.75;;;0.60;;
39612;SDS011;25303;48.896;13.342;2023-03-14T13:11:28;0.70;;;0.50;;
39612;SDS011;25303;48.896;13.342;2023-03-14T13:14:15;1.23;;;0.60;;
39612;SDS011;25303;48.896;13.342;2023-03-14T13:16:59;1.42;;;0.55;;
39612;SDS011;25303;48.896;13.342;2023-03-14T13:20:05;2.13;;;1.05;;
39612;SDS011;25303;48.896;13.342;2023-03-14T13:22:55;1.58;;;1.00;;
39612;SDS011;25303;48.896;13.342;2023-03-14T13:25:38;2.92;;;1.20;;
39612;SDS011;25303;48.896;13.342;2023-03-14T13:28:21;2.83;;;1.17;;
39612;SDS011;25303;48.896;13.342;2023-03-14T13:31:04;4.60;;;1.50;;
39612;SDS011;25303;48.896;13.342;2023-03-14T13:34:01;3.25;;;1.20;;
39612;SDS011;25303;48.896;13.342;2023-03-14T13:36:51;3.75;;;1.20;;
39612;SDS011;25303;48.896;13.342;2023-03-14T13:39:34;10.95;;;2.85;;
39612;SDS011;25303;48.896;13.342;2023-03-14T13:42:24;3.78;;;1.33;;
39612;SDS011;25303;48.896;13.342;2023-03-14T13:45:11;3.90;;;1.00;;
39612;SDS011;25303;48.896;13.342;2023-03-14T13:47:59;0.80;;;0.50;;
39612;SDS011;25303;48.896;13.342;2023-03-14T13:53:46;4.10;;;0.93;;
39612;SDS011;25303;48.896;13.342;2023-03-14T13:56:31;2.70;;;0.98;;
39612;SDS011;25303;48.896;13.342;2023-03-14T13:59:21;1.92;;;0.80;;
39612;SDS011;25303;48.896;13.342;2023-03-14T14:02:06;2.08;;;0.60;;
39612;SDS011;25303;48.896;13.342;2023-03-14T14:04:59;2.20;;;0.95;;
39612;SDS011;25303;48.896;13.342;2023-03-14T14:07:42;1.42;;;0.80;;
39612;SDS011;25303;48.896;13.342;2023-03-14T14:10:28;0.70;;;0.60;;
39612;SDS011;25303;48.896;13.342;2023-03-14T14:13:13;1.20;;;0.80;;
39612;SDS011;25303;48.896;13.342;2023-03-14T14:16:00;1.50;;;0.75;;
39612;SDS011;25303;48.896;13.342;2023-03-14T14:18:46;1.77;;;0.73;;
39612;SDS011;25303;48.896;13.342;2023-03-14T14:21:29;3.08;;;1.30;;
39612;SDS011;25303;48.896;13.342;2023-03-14T14:24:13;3.75;;;1.80;;
39612;SDS011;25303;48.896;13.342;2023-03-14T14:27:00;2.55;;;1.00;;
39612;SDS011;25303;48.896;13.342;2023-03-14T14:29:57;2.13;;;1.10;;
39612;SDS011;25303;48.896;13.342;2023-03-14T14:32:43;3.70;;;1.38;;
39612;SDS011;25303;48.896;13.342;2023-03-14T14:35:31;3.50;;;0.98;;
39612;SDS011;25303;48.896;13.342;2023-03-14T14:38:16;3.75;;;1.88;;
39612;SDS011;25303;48.896;13.342;2023-03-14T14:41:00;6.82;;;2.40;;
39612;SDS011;25303;48.896;13.342;2023-03-14T14:43:46;4.30;;;2.00;;
39612;SDS011;25303;48.896;13.342;2023-03-14T14:46:30;4.50;;;1.73;;
39612;SDS011;25303;48.896;13.342;2023-03-14T14:49:15;7.07;;;3.20;;
39612;SDS011;25303;48.896;13.342;2023-03-14T14:52:02;3.20;;;1.67;;
39612;SDS011;25303;48.896;13.342;2023-03-14T14:54:47;3.38;;;1.38;;
39612;SDS011;25303;48.896;13.342;2023-03-14T14:57:37;8.90;;;2.42;;
39612;SDS011;25303;48.896;13.342;2023-03-14T15:00:24;7.78;;;3.47;;
39612;SDS011;25303;48.896;13.342;2023-03-14T15:03:10;5.55;;;2.15;;
39612;SDS011;25303;48.896;13.342;2023-03-14T15:05:57;4.13;;;1.70;;
39612;SDS011;25303;48.896;13.342;2023-03-14T15:08:40;2.42;;;1.30;;
39612;SDS011;25303;48.896;13.342;2023-03-14T15:11:26;3.35;;;1.80;;
39612;SDS011;25303;48.896;13.342;2023-03-14T15:14:09;4.13;;;2.20;;
39612;SDS011;25303;48.896;13.342;2023-03-14T15:16:53;7.95;;;3.47;;
39612;SDS011;25303;48.896;13.342;2023-03-14T15:19:36;5.05;;;2.40;;
39612;SDS011;25303;48.896;13.342;2023-03-14T15:22:19;3.40;;;2.05;;
39612;SDS011;25303;48.896;13.342;2023-03-14T15:25:01;1.85;;;1.10;;
39612;SDS011;25303;48.896;13.342;2023-03-14T15:27:44;1.27;;;0.80;;
39612;SDS011;25303;48.896;13.342;2023-03-14T15:30:27;1.45;;;0.95;;
39612;SDS011;25303;48.896;13.342;2023-03-14T15:33:11;1.08;;;0.70;;
39612;SDS011;25303;48.896;13.342;2023-03-14T15:35:55;0.90;;;0.50;;
39612;SDS011;25303;48.896;13.342;2023-03-14T15:38:38;2.15;;;0.82;;
39612;SDS011;25303;48.896;13.342;2023-03-14T15:41:21;0.93;;;0.77;;
39612;SDS011;25303;48.896;13.342;2023-03-14T15:44:05;0.85;;;0.43;;
39612;SDS011;25303;48.896;13.342;2023-03-14T15:46:48;0.93;;;0.52;;
39612;SDS011;25303;48.896;13.342;2023-03-14T15:49:32;0.80;;;0.40;;
39612;SDS011;25303;48.896;13.342;2023-03-14T15:52:15;0.63;;;0.32;;
39612;SDS011;25303;48.896;13.342;2023-03-14T15:54:57;1.92;;;0.30;;
39612;SDS011;25303;48.896;13.342;2023-03-14T15:57:41;1.83;;;0.50;;
39612;SDS011;25303;48.896;13.342;2023-03-14T16:00:25;0.70;;;0.30;;
39612;SDS011;25303;48.896;13.342;2023-03-14T16:03:08;0.28;;;0.20;;
39612;SDS011;25303;48.896;13.342;2023-03-14T16:05:53;2.08;;;0.30;;
39612;SDS011;25303;48.896;13.342;2023-03-14T16:08:36;1.25;;;0.20;;
39612;SDS011;25303;48.896;13.342;2023-03-14T16:11:19;0.47;;;0.30;;
39612;SDS011;25303;48.896;13.342;2023-03-14T16:14:03;0.55;;;0.35;;
39612;SDS011;25303;48.896;13.342;2023-03-14T16:16:46;0.30;;;0.20;;
39612;SDS011;25303;48.896;13.342;2023-03-14T16:19:29;0.30;;;0.30;;
39612;SDS011;25303;48.896;13.342;2023-03-14T16:22:13;0.40;;;0.20;;
39612;SDS011;25303;48.896;13.342;2023-03-14T16:24:56;0.30;;;0.20;;
39612;SDS011;25303;48.896;13.342;2023-03-14T16:27:39;0.38;;;0.30;;
39612;SDS011;25303;48.896;13.342;2023-03-14T16:30:23;0.20;;;0.20;;
39612;SDS011;25303;48.896;13.342;2023-03-14T16:33:05;0.30;;;0.30;;
39612;SDS011;25303;48.896;13.342;2023-03-14T16:35:53;0.85;;;0.30;;
39612;SDS011;25303;48.896;13.342;2023-03-14T16:38:38;0.82;;;0.20;;
39612;SDS011;25303;48.896;13.342;2023-03-14T16:41:22;0.38;;;0.20;;
39612;SDS011;25303;48.896;13.342;2023-03-14T16:44:05;0.55;;;0.30;;